98AK weather

Eastland Airport
Homer, Alaska, United States

Public forecast

Using degrees Fahrenheit for public forecast. Weather courtesy of forecast.io.

Closest aviation weather report (METAR) to Eastland Airport

Closest report is Homer Airport, 11.9 nm (22.0 km) SW. Retrieved 2020/04/04 16:53 UTC (1 hour ago):

PAHO 041653Z 00000KT 10SM OVC080 04/02 A3007 RMK AO2 SLP184 T00440022

Closest aviation forecast (TAF) to Eastland Airport

Closest forecast is Homer Airport, 11.9 nm (22.0 km) SW. Retrieved 2020/04/04 12:30 UTC (5 hours ago):

TAF PAHO 041127Z 0412/0512 25008KT P6SM VCSH SCT015 OVC025 TEMPO 0412/0416 BKN015 FM041800 26011KT P6SM SCT025 BKN040